Time;durP1;ratioP1;P1;durP2;ratioP2;P2;SDS_P1;SDS_P2;PMS_P1;PMS_P2;Temp;Humidity;BMP_temperature;BMP_pressure;BME280_temperature;BME280_humidity;BME280_pressure;Samples;Min_cycle;Max_cycle;Signal;HPM_P1;HPM_P2
2022/10/05 00:00:35;;;;;;;8.30;4.07;;;11.60;1.00;;;;;;5021296;28;20515;-81
2022/10/05 00:03:10;;;;;;;9.40;4.87;;;11.50;1.00;;;;;;5024741;28;20481;-81
2022/10/05 00:05:38;;;;;;;9.40;4.13;;;11.50;1.00;;;;;;5022879;28;20508;-81
2022/10/05 00:08:13;;;;;;;10.50;4.93;;;11.60;1.00;;;;;;5021475;28;20603;-81
2022/10/05 00:10:41;;;;;;;9.40;4.50;;;11.60;1.00;;;;;;5025901;28;20438;-81
2022/10/05 00:13:12;;;;;;;11.27;4.97;;;11.50;1.00;;;;;;5022421;28;20465;-81
2022/10/05 00:15:42;;;;;;;10.00;4.77;;;11.60;1.00;;;;;;5023171;28;20460;-81
2022/10/05 00:18:15;;;;;;;9.37;4.93;;;11.60;1.00;;;;;;5021098;28;20438;-82
2022/10/05 00:20:43;;;;;;;10.40;5.23;;;11.60;1.00;;;;;;5021318;28;20415;-80
2022/10/05 00:23:16;;;;;;;9.80;4.47;;;11.50;1.00;;;;;;5019957;28;20442;-81
2022/10/05 00:25:43;;;;;;;12.70;5.20;;;11.50;1.00;;;;;;5023001;28;20537;-82
2022/10/05 00:28:17;;;;;;;10.43;4.27;;;11.50;1.00;;;;;;5019841;28;20876;-82
2022/10/05 00:30:48;;;;;;;9.13;4.63;;;11.40;1.00;;;;;;5024717;28;20453;-80
2022/10/05 00:33:15;;;;;;;9.33;4.57;;;11.40;1.00;;;;;;5023861;28;21051;-81
2022/10/05 00:35:44;;;;;;;9.67;4.40;;;11.40;1.00;;;;;;5025650;28;20461;-80
2022/10/05 00:38:11;;;;;;;9.40;4.90;;;11.40;1.00;;;;;;5024641;28;20454;-81
2022/10/05 00:40:55;;;;;;;9.90;4.57;;;11.40;1.00;;;;;;5025230;28;20470;-81
2022/10/05 00:43:44;;;;;;;8.87;4.23;;;11.30;1.00;;;;;;5020937;28;20476;-81
2022/10/05 00:46:18;;;;;;;11.13;4.87;;;11.30;1.00;;;;;;5020772;28;20465;-81
2022/10/05 00:48:54;;;;;;;9.50;4.40;;;11.30;1.00;;;;;;5022533;28;21364;-81
2022/10/05 00:51:27;;;;;;;9.33;4.10;;;11.30;1.00;;;;;;5020567;28;20473;-82
2022/10/05 00:54:09;;;;;;;12.00;4.63;;;11.30;1.00;;;;;;5023037;28;20480;-81
2022/10/05 00:56:52;;;;;;;11.77;4.83;;;11.30;1.00;;;;;;5019758;28;20599;-81
2022/10/05 00:59:28;;;;;;;11.80;4.80;;;11.20;1.00;;;;;;5021504;28;21293;-80
2022/10/05 01:02:00;;;;;;;10.10;5.00;;;11.20;1.00;;;;;;5023761;28;21310;-79
2022/10/05 01:04:35;;;;;;;9.20;5.00;;;11.20;1.00;;;;;;5017789;28;20473;-81
2022/10/05 01:07:13;;;;;;;9.40;4.40;;;11.20;1.00;;;;;;5018109;28;20453;-79
2022/10/05 01:09:50;;;;;;;11.40;5.13;;;11.20;1.00;;;;;;5017721;28;20566;-80
2022/10/05 01:12:25;;;;;;;10.00;4.80;;;11.20;1.00;;;;;;5017459;28;20450;-82
2022/10/05 01:15:05;;;;;;;10.20;4.40;;;11.10;1.00;;;;;;5021667;28;20552;-81
2022/10/05 01:17:41;;;;;;;11.53;4.17;;;11.10;1.00;;;;;;5020203;28;20465;-81
2022/10/05 01:20:28;;;;;;;10.80;5.30;;;11.10;1.00;;;;;;5019009;28;20425;-82
2022/10/05 01:23:25;;;;;;;9.90;5.17;;;11.20;1.00;;;;;;5020616;28;20489;-81
2022/10/05 01:26:04;;;;;;;9.43;5.13;;;11.20;1.00;;;;;;5017378;28;20477;-81
2022/10/05 01:28:37;;;;;;;10.57;4.73;;;11.20;1.00;;;;;;5016896;28;20461;-82
2022/10/05 01:31:12;;;;;;;11.93;5.10;;;11.20;1.00;;;;;;5017218;28;20465;-81
2022/10/05 01:33:48;;;;;;;13.73;5.10;;;11.20;1.00;;;;;;5020208;28;20465;-82
2022/10/05 01:36:24;;;;;;;10.30;4.13;;;11.10;1.00;;;;;;5018786;28;20470;-81
2022/10/05 01:39:02;;;;;;;10.97;5.40;;;11.10;1.00;;;;;;5021812;28;20452;-80
2022/10/05 01:41:40;;;;;;;14.60;5.77;;;11.10;1.00;;;;;;5017688;28;20492;-81
2022/10/05 01:44:18;;;;;;;15.17;4.60;;;11.10;1.00;;;;;;5018328;28;20465;-81
2022/10/05 01:46:55;;;;;;;11.30;4.57;;;11.10;1.00;;;;;;5019159;28;20453;-81
2022/10/05 01:49:38;;;;;;;8.67;5.03;;;11.00;1.00;;;;;;5017081;28;20450;-81
2022/10/05 01:52:24;;;;;;;11.30;5.60;;;11.00;1.00;;;;;;5018377;28;20535;-84
2022/10/05 01:55:06;;;;;;;10.53;5.20;;;11.00;1.00;;;;;;5020801;28;20470;-81
2022/10/05 01:57:43;;;;;;;10.77;4.47;;;10.80;1.00;;;;;;5020909;28;20437;-82
2022/10/05 02:00:14;;;;;;;12.07;5.27;;;10.80;1.00;;;;;;5001546;28;20957;-82
2022/10/05 02:02:46;;;;;;;13.93;5.80;;;10.80;1.00;;;;;;5021856;28;21720;-81
2022/10/05 02:05:19;;;;;;;10.27;4.73;;;10.80;1.00;;;;;;5025632;28;20468;-81
2022/10/05 02:07:52;;;;;;;10.77;5.40;;;10.80;1.00;;;;;;5019685;28;20452;-80
2022/10/05 02:10:24;;;;;;;10.93;4.80;;;10.80;1.00;;;;;;5021608;28;20430;-82
2022/10/05 02:12:56;;;;;;;9.80;5.43;;;10.80;1.00;;;;;;5022558;28;20453;-81
2022/10/05 02:15:29;;;;;;;13.30;5.40;;;10.80;1.00;;;;;;5022692;28;20543;-82
2022/10/05 02:18:03;;;;;;;10.23;5.20;;;10.70;1.00;;;;;;5025786;28;20489;-81
2022/10/05 02:20:34;;;;;;;10.90;4.97;;;10.70;1.00;;;;;;5020237;28;20472;-82
2022/10/05 02:23:07;;;;;;;9.83;4.53;;;10.60;1.00;;;;;;5025979;28;20491;-83
2022/10/05 02:25:39;;;;;;;10.97;4.90;;;10.60;1.00;;;;;;5019860;28;20477;-81
2022/10/05 02:28:12;;;;;;;12.90;5.30;;;10.60;1.00;;;;;;5021303;28;20473;-81
2022/10/05 02:30:47;;;;;;;9.80;5.63;;;10.60;1.00;;;;;;5022635;28;20477;-82
2022/10/05 02:33:20;;;;;;;11.60;6.10;;;10.60;1.00;;;;;;5024468;28;20461;-80
2022/10/05 02:35:49;;;;;;;12.87;5.33;;;10.50;1.00;;;;;;5025831;28;20470;-81
2022/10/05 02:38:26;;;;;;;9.53;4.40;;;10.50;1.00;;;;;;5024777;28;20899;-81
2022/10/05 02:41:04;;;;;;;12.90;6.00;;;10.50;1.00;;;;;;5028338;28;20450;-82
2022/10/05 02:43:41;;;;;;;10.87;5.17;;;10.40;1.00;;;;;;5021971;28;20511;-82
2022/10/05 02:46:20;;;;;;;10.97;5.27;;;10.50;1.00;;;;;;5024591;28;20457;-81
2022/10/05 02:48:59;;;;;;;15.30;7.00;;;10.50;1.00;;;;;;5027188;28;20500;-83
2022/10/05 02:51:29;;;;;;;11.23;4.93;;;10.50;1.00;;;;;;5022870;28;21282;-84
2022/10/05 02:54:08;;;;;;;11.20;5.53;;;10.50;1.00;;;;;;5025422;28;21294;-82
2022/10/05 02:56:42;;;;;;;12.00;5.30;;;10.50;1.00;;;;;;5024057;28;21226;-82
2022/10/05 02:59:17;;;;;;;10.90;5.10;;;10.40;1.00;;;;;;5022749;28;21632;-82
2022/10/05 03:01:51;;;;;;;10.73;5.87;;;10.40;1.00;;;;;;5027055;28;20447;-82
2022/10/05 03:04:28;;;;;;;14.00;5.60;;;10.40;1.00;;;;;;5020997;28;20488;-81
2022/10/05 03:07:03;;;;;;;10.63;5.43;;;10.30;1.00;;;;;;5022115;28;20457;-84
2022/10/05 03:09:38;;;;;;;11.50;5.97;;;10.30;1.00;;;;;;5024722;28;20466;-81
2022/10/05 03:12:16;;;;;;;11.13;5.47;;;10.20;1.00;;;;;;5026823;28;20468;-82
2022/10/05 03:14:53;;;;;;;11.83;5.80;;;10.20;1.00;;;;;;5024640;28;20454;-83
2022/10/05 03:17:25;;;;;;;10.30;5.43;;;10.20;1.00;;;;;;5024943;28;20457;-84
2022/10/05 03:20:18;;;;;;;13.20;5.60;;;10.30;1.00;;;;;;5028273;28;20557;-83
2022/10/05 03:22:49;;;;;;;10.60;5.47;;;10.30;1.00;;;;;;5024411;28;20457;-81
2022/10/05 03:25:45;;;;;;;11.67;5.60;;;10.30;1.00;;;;;;5026686;28;20449;-82
2022/10/05 03:28:19;;;;;;;11.33;5.67;;;10.40;1.00;;;;;;5024686;28;20461;-82
2022/10/05 03:30:53;;;;;;;13.33;7.50;;;10.40;1.00;;;;;;5023920;28;20988;-82
2022/10/05 03:33:35;;;;;;;11.80;5.40;;;10.40;1.00;;;;;;5010426;28;20552;-82
2022/10/05 03:36:12;;;;;;;15.67;6.73;;;10.40;1.00;;;;;;5026491;28;20511;-82
2022/10/05 03:38:45;;;;;;;11.43;5.57;;;10.50;1.00;;;;;;5028036;28;20810;-82
2022/10/05 03:41:17;;;;;;;11.13;5.57;;;10.50;1.00;;;;;;5028884;28;20443;-82
2022/10/05 03:44:15;;;;;;;11.50;5.40;;;10.50;1.00;;;;;;5025212;28;20465;-82
2022/10/05 03:46:56;;;;;;;11.60;5.43;;;10.40;1.00;;;;;;5026955;28;20454;-81
2022/10/05 03:49:34;;;;;;;16.40;10.83;;;10.50;1.00;;;;;;5026600;28;20866;-80
2022/10/05 03:52:05;;;;;;;12.10;6.07;;;10.50;1.00;;;;;;5027262;28;20472;-81
2022/10/05 03:54:37;;;;;;;13.00;5.30;;;10.50;1.00;;;;;;5024777;28;20464;-82
2022/10/05 03:57:13;;;;;;;12.73;6.10;;;10.50;1.00;;;;;;5023526;28;20565;-80
2022/10/05 03:59:48;;;;;;;13.73;5.67;;;10.50;1.00;;;;;;5028827;28;20465;-81
2022/10/05 04:02:22;;;;;;;12.10;5.73;;;10.60;1.00;;;;;;5020820;28;20445;-82
2022/10/05 04:04:55;;;;;;;12.43;6.30;;;10.60;1.00;;;;;;5024778;28;20469;-81
2022/10/05 04:07:32;;;;;;;13.77;6.30;;;10.70;1.00;;;;;;5026422;28;20529;-81
2022/10/05 04:10:01;;;;;;;11.30;5.50;;;10.70;1.00;;;;;;5026348;28;21233;-83
2022/10/05 04:12:35;;;;;;;11.13;5.20;;;10.70;1.00;;;;;;5022275;28;20572;-79
2022/10/05 04:15:13;;;;;;;11.30;5.33;;;10.70;1.00;;;;;;5023418;28;20464;-82
2022/10/05 04:17:44;;;;;;;15.33;6.20;;;10.70;1.00;;;;;;5028935;28;20929;-81
2022/10/05 04:20:19;;;;;;;12.67;5.90;;;10.70;1.00;;;;;;5027084;28;20558;-83
2022/10/05 04:22:55;;;;;;;10.80;5.40;;;10.80;1.00;;;;;;5029035;28;20460;-83
2022/10/05 04:25:27;;;;;;;14.63;5.83;;;10.80;1.00;;;;;;5027684;28;20831;-80
2022/10/05 04:28:01;;;;;;;9.90;4.77;;;10.80;1.00;;;;;;5019337;28;20549;-81
2022/10/05 04:30:31;;;;;;;13.20;5.97;;;10.80;1.00;;;;;;5028744;28;20963;-81
2022/10/05 04:33:00;;;;;;;11.03;6.10;;;10.80;1.00;;;;;;5034391;28;20461;-81
2022/10/05 04:35:42;;;;;;;11.50;5.90;;;10.80;1.00;;;;;;5035308;28;20457;-82
2022/10/05 04:38:28;;;;;;;11.10;4.90;;;10.70;1.00;;;;;;5036707;28;21265;-81
2022/10/05 04:41:08;;;;;;;10.40;5.40;;;10.80;1.00;;;;;;5036644;28;20457;-80
2022/10/05 04:43:47;;;;;;;13.87;5.80;;;10.80;1.00;;;;;;5032310;28;20536;-82
2022/10/05 04:46:25;;;;;;;13.20;6.00;;;10.80;1.00;;;;;;5019336;28;20461;-81
2022/10/05 04:49:22;;;;;;;13.40;5.37;;;10.80;1.00;;;;;;5030271;28;20513;-82
2022/10/05 04:52:02;;;;;;;11.87;6.10;;;10.90;1.00;;;;;;5028400;28;21030;-84
2022/10/05 04:54:44;;;;;;;14.50;6.03;;;10.90;1.00;;;;;;5027063;28;20467;-82
2022/10/05 04:57:17;;;;;;;14.50;6.53;;;10.90;1.00;;;;;;5027892;28;20432;-82
2022/10/05 05:00:06;;;;;;;16.47;6.30;;;11.00;1.00;;;;;;5025968;28;20465;-80
2022/10/05 05:02:51;;;;;;;14.50;5.60;;;11.00;1.00;;;;;;5025988;28;20458;-80
2022/10/05 05:05:43;;;;;;;13.13;5.47;;;11.00;1.00;;;;;;5024553;28;20472;-80
2022/10/05 05:08:35;;;;;;;12.50;5.77;;;11.10;1.00;;;;;;5022588;28;20960;-79
2022/10/05 05:11:16;;;;;;;11.40;5.77;;;11.10;1.00;;;;;;5026559;28;20555;-80
2022/10/05 05:14:29;;;;;;;12.20;5.90;;;11.10;1.00;;;;;;5017251;28;20450;-82
2022/10/05 05:17:09;;;;;;;11.87;5.77;;;11.10;1.00;;;;;;4974329;28;20985;-82
2022/10/05 05:19:55;;;;;;;11.70;5.70;;;11.10;1.00;;;;;;5020223;28;20449;-80
2022/10/05 05:22:35;;;;;;;10.70;5.60;;;11.00;1.00;;;;;;5006426;28;20462;-79
2022/10/05 05:25:35;;;;;;;10.77;6.00;;;11.10;1.00;;;;;;5023959;28;20549;-80
2022/10/05 05:28:14;;;;;;;11.80;5.70;;;11.10;1.00;;;;;;5012662;28;20484;-81
2022/10/05 05:30:46;;;;;;;11.90;5.13;;;11.10;1.00;;;;;;5021913;28;20501;-79
2022/10/05 05:33:23;;;;;;;12.20;5.90;;;11.20;1.00;;;;;;5026135;28;20484;-81
2022/10/05 05:36:14;;;;;;;12.80;5.43;;;11.20;1.00;;;;;;5024927;28;20424;-81
2022/10/05 05:38:56;;;;;;;10.40;4.77;;;11.20;1.00;;;;;;5023903;28;20942;-82
2022/10/05 05:41:35;;;;;;;10.33;5.30;;;11.20;1.00;;;;;;5020025;28;20548;-81
2022/10/05 05:44:19;;;;;;;11.60;5.87;;;11.20;1.00;;;;;;5021349;28;20468;-80
2022/10/05 05:47:01;;;;;;;11.50;5.47;;;11.20;1.00;;;;;;5023396;28;20452;-81
2022/10/05 05:49:38;;;;;;;13.60;5.67;;;11.30;1.00;;;;;;5024746;28;20585;-80
2022/10/05 05:52:12;;;;;;;10.93;5.33;;;11.30;1.00;;;;;;5025685;28;20444;-77
2022/10/05 05:54:44;;;;;;;13.20;5.70;;;11.30;1.00;;;;;;5025046;28;20461;-80
2022/10/05 05:57:20;;;;;;;11.83;5.63;;;11.30;1.00;;;;;;5019628;28;20477;-79
2022/10/05 06:00:02;;;;;;;11.63;5.40;;;11.40;1.00;;;;;;5023484;28;20466;-82
2022/10/05 06:02:39;;;;;;;11.93;5.87;;;11.50;1.00;;;;;;5019620;28;20490;-79
2022/10/05 06:05:38;;;;;;;11.37;6.43;;;11.50;1.00;;;;;;5020279;28;20437;-83
2022/10/05 06:08:13;;;;;;;11.53;5.40;;;11.50;1.00;;;;;;5022657;28;20444;-80
2022/10/05 06:10:43;;;;;;;11.43;4.90;;;11.60;1.00;;;;;;5025411;28;20424;-81
2022/10/05 06:13:19;;;;;;;14.87;5.73;;;11.70;1.00;;;;;;5021753;28;20446;-80
2022/10/05 06:15:52;;;;;;;11.70;5.10;;;11.70;1.00;;;;;;5026500;28;20456;-80
2022/10/05 06:18:25;;;;;;;11.17;4.90;;;11.80;1.00;;;;;;5025635;28;20560;-82
2022/10/05 06:20:58;;;;;;;11.97;5.03;;;11.80;1.00;;;;;;5010224;28;20453;-80
2022/10/05 06:23:30;;;;;;;9.40;4.60;;;11.90;1.00;;;;;;5012621;28;20492;-81
2022/10/05 06:26:11;;;;;;;11.43;5.40;;;11.90;1.00;;;;;;5025104;28;20453;-83
2022/10/05 06:28:40;;;;;;;11.07;5.03;;;12.00;1.00;;;;;;5022813;28;20477;-80
2022/10/05 06:31:21;;;;;;;14.57;5.67;;;12.10;1.00;;;;;;5026436;28;20469;-80
2022/10/05 06:33:54;;;;;;;13.37;5.00;;;12.20;1.00;;;;;;5024202;28;20410;-80
2022/10/05 06:36:37;;;;;;;10.37;4.67;;;12.20;1.00;;;;;;5012394;28;20479;-80
2022/10/05 06:39:47;;;;;;;11.23;4.90;;;12.30;1.00;;;;;;5024208;28;20435;-79
2022/10/05 06:42:35;;;;;;;12.77;5.03;;;12.40;1.00;;;;;;5022337;28;20496;-82
2022/10/05 06:45:15;;;;;;;9.27;4.87;;;12.50;1.00;;;;;;5026964;28;20541;-80
2022/10/05 06:47:47;;;;;;;13.27;4.43;;;12.50;1.00;;;;;;5012209;28;20460;-81
2022/10/05 06:50:30;;;;;;;10.30;4.87;;;12.60;1.00;;;;;;5025550;28;20462;-81
2022/10/05 06:53:20;;;;;;;13.93;5.10;;;12.70;1.00;;;;;;5024912;28;20477;-82
2022/10/05 06:55:57;;;;;;;10.83;4.87;;;12.80;1.00;;;;;;5009944;28;20461;-82
2022/10/05 06:58:37;;;;;;;11.47;4.67;;;12.80;1.00;;;;;;5021955;28;20680;-81
2022/10/05 07:01:14;;;;;;;13.30;5.03;;;12.90;1.00;;;;;;5025245;28;21304;-81
2022/10/05 07:03:57;;;;;;;9.10;3.80;;;12.90;1.00;;;;;;5027129;28;20473;-83
2022/10/05 07:06:30;;;;;;;9.70;5.00;;;13.00;1.00;;;;;;5028498;28;20457;-83
2022/10/05 07:09:17;;;;;;;13.35;5.00;;;13.10;1.00;;;;;;5029819;28;20416;-83
2022/10/05 07:12:10;;;;;;;11.77;4.33;;;13.10;1.00;;;;;;5030844;28;20326;-83
2022/10/05 07:14:51;;;;;;;12.80;4.90;;;13.10;1.00;;;;;;5012006;28;20572;-83
2022/10/05 07:17:32;;;;;;;11.93;4.23;;;13.10;1.00;;;;;;5016167;28;20448;-81
2022/10/05 07:20:16;;;;;;;12.90;4.90;;;13.20;1.00;;;;;;5028901;28;20461;-82
2022/10/05 07:23:10;;;;;;;11.67;4.60;;;13.30;1.00;;;;;;5024517;28;20410;-82
2022/10/05 07:25:42;;;;;;;10.67;3.70;;;13.40;1.00;;;;;;5024920;28;20514;-83
2022/10/05 07:28:16;;;;;;;9.80;4.10;;;13.50;1.00;;;;;;5025717;28;20557;-81
2022/10/05 07:30:55;;;;;;;11.10;5.63;;;13.50;1.00;;;;;;5026498;28;20484;-82
2022/10/05 07:33:30;;;;;;;8.40;3.50;;;13.40;1.00;;;;;;5026698;28;21502;-82
2022/10/05 07:38:58;;;;;;;10.73;4.60;;;13.50;1.00;;;;;;5026729;28;20461;-82
2022/10/05 07:41:34;;;;;;;12.57;4.63;;;13.60;1.00;;;;;;5029354;28;20988;-83
2022/10/05 07:44:11;;;;;;;10.77;3.73;;;13.70;1.00;;;;;;5032303;28;20635;-83
2022/10/05 07:46:48;;;;;;;8.40;3.83;;;13.90;1.00;;;;;;5030697;28;21261;-84
2022/10/05 07:49:26;;;;;;;11.47;4.60;;;14.20;1.00;;;;;;5028323;28;20444;-82
2022/10/05 07:52:03;;;;;;;9.07;4.40;;;14.50;1.00;;;;;;5022874;28;20484;-85
2022/10/05 07:54:44;;;;;;;10.20;4.17;;;14.60;1.00;;;;;;5029601;28;20441;-85
2022/10/05 07:57:21;;;;;;;11.20;4.50;;;14.80;1.00;;;;;;5028715;28;20568;-82
2022/10/05 07:59:56;;;;;;;10.57;4.00;;;14.80;1.00;;;;;;5033346;28;20422;-82
2022/10/05 08:02:33;;;;;;;7.67;3.70;;;14.80;1.00;;;;;;5021880;28;20437;-84
2022/10/05 08:05:10;;;;;;;8.80;4.13;;;14.80;1.00;;;;;;5035070;28;20446;-83
2022/10/05 08:07:46;;;;;;;9.00;3.93;;;14.90;1.00;;;;;;5034052;28;20472;-84
2022/10/05 08:10:30;;;;;;;8.00;3.70;;;15.00;1.00;;;;;;5033578;28;20512;-84
2022/10/05 08:13:20;;;;;;;7.60;3.50;;;15.20;1.00;;;;;;5031685;28;20472;-85
2022/10/05 08:16:02;;;;;;;10.20;3.70;;;15.30;1.00;;;;;;5036690;28;20466;-85
2022/10/05 08:18:59;;;;;;;8.70;3.87;;;15.30;1.00;;;;;;5029429;28;20473;-84
2022/10/05 08:21:41;;;;;;;8.73;3.93;;;15.40;1.00;;;;;;5023919;28;20516;-86
2022/10/05 08:24:30;;;;;;;11.20;3.70;;;15.40;1.00;;;;;;5032362;28;20484;-85
2022/10/05 08:30:04;;;;;;;9.37;4.00;;;15.70;1.00;;;;;;5033115;28;20455;-85
2022/10/05 08:32:50;;;;;;;12.67;4.67;;;15.90;1.00;;;;;;5029455;28;20485;-85
2022/10/05 08:35:28;;;;;;;11.53;3.97;;;16.00;1.00;;;;;;5033042;28;20471;-84
2022/10/05 08:38:09;;;;;;;9.80;3.60;;;16.10;1.00;;;;;;5024317;28;20414;-84
2022/10/05 08:41:01;;;;;;;11.83;4.00;;;16.40;1.00;;;;;;5027723;28;20435;-85
2022/10/05 08:44:06;;;;;;;8.40;3.70;;;16.40;1.00;;;;;;5027717;28;20596;-84
2022/10/05 08:47:04;;;;;;;11.30;3.93;;;16.20;1.00;;;;;;5030271;28;20461;-84
2022/10/05 08:50:11;;;;;;;7.87;3.60;;;16.30;1.00;;;;;;5015671;28;20469;-85
2022/10/05 08:53:00;;;;;;;11.30;4.60;;;16.30;1.00;;;;;;5017656;28;20991;-80
2022/10/05 08:55:40;;;;;;;11.23;3.77;;;16.50;1.00;;;;;;5018422;28;20469;-80
2022/10/05 08:58:25;;;;;;;8.57;3.50;;;16.80;1.00;;;;;;5017159;28;20536;-81
2022/10/05 09:01:03;;;;;;;8.30;3.90;;;16.80;1.00;;;;;;5017836;28;20464;-80
2022/10/05 09:04:00;;;;;;;9.10;4.30;;;17.00;1.00;;;;;;5016645;28;21967;-80
2022/10/05 09:07:02;;;;;;;8.40;4.00;;;17.10;1.00;;;;;;5009427;28;20483;-80
2022/10/05 09:10:02;;;;;;;8.60;3.50;;;17.20;1.00;;;;;;5003303;28;20465;-81
2022/10/05 09:12:50;;;;;;;7.40;4.00;;;17.30;1.00;;;;;;4981162;28;20469;-81
2022/10/05 09:15:42;;;;;;;6.87;3.47;;;17.40;1.00;;;;;;5002261;28;21310;-80
2022/10/05 09:18:35;;;;;;;10.67;4.37;;;17.40;1.00;;;;;;5004720;28;20482;-82
2022/10/05 09:21:06;;;;;;;9.50;4.17;;;17.50;1.00;;;;;;5001953;28;20517;-83
2022/10/05 09:23:39;;;;;;;9.03;3.97;;;17.50;1.00;;;;;;5007107;28;20434;-84
2022/10/05 09:26:28;;;;;;;7.67;3.50;;;17.60;1.00;;;;;;4989112;28;20471;-82
2022/10/05 09:29:10;;;;;;;9.50;4.10;;;17.70;1.00;;;;;;5001085;28;20461;-81
2022/10/05 09:32:09;;;;;;;10.30;3.93;;;17.90;1.00;;;;;;5005295;28;20458;-86
2022/10/05 09:34:57;;;;;;;9.30;4.43;;;18.00;1.00;;;;;;5010706;28;20454;-85
2022/10/05 09:37:59;;;;;;;8.23;4.07;;;18.10;1.00;;;;;;5011162;28;20443;-82
2022/10/05 09:41:03;;;;;;;11.30;4.00;;;18.00;1.00;;;;;;5001906;28;20462;-81
2022/10/05 09:44:17;;;;;;;10.47;4.53;;;18.10;1.00;;;;;;4993037;28;20560;-80
2022/10/05 09:46:59;;;;;;;6.90;3.57;;;18.20;1.00;;;;;;5003955;28;20463;-80
2022/10/05 09:50:12;;;;;;;8.50;4.17;;;18.20;1.00;;;;;;5006028;28;20490;-81
2022/10/05 09:53:03;;;;;;;8.57;4.50;;;18.20;1.00;;;;;;5001096;28;20575;-79
2022/10/05 09:56:11;;;;;;;9.80;3.60;;;18.40;1.00;;;;;;5011699;28;20957;-80
2022/10/05 09:59:06;;;;;;;8.80;4.33;;;18.70;1.00;;;;;;5007994;28;20473;-81
2022/10/05 10:02:05;;;;;;;10.70;4.47;;;18.90;1.00;;;;;;5005846;28;20479;-80
2022/10/05 10:05:04;;;;;;;8.23;4.10;;;19.00;1.00;;;;;;4996477;28;20540;-81
2022/10/05 10:07:51;;;;;;;8.47;3.93;;;19.20;1.00;;;;;;5017479;28;20442;-79
2022/10/05 10:10:48;;;;;;;7.73;4.17;;;19.40;1.00;;;;;;5025710;28;20568;-79
2022/10/05 10:13:32;;;;;;;9.23;4.20;;;19.80;1.00;;;;;;5028971;28;20470;-78
2022/10/05 10:16:16;;;;;;;8.40;4.50;;;19.80;1.00;;;;;;5027583;28;20452;-79
2022/10/05 10:19:08;;;;;;;7.70;4.10;;;19.80;1.00;;;;;;5018839;28;20436;-79
2022/10/05 10:22:29;;;;;;;7.90;4.10;;;19.80;1.00;;;;;;5022452;28;20843;-78
2022/10/05 10:25:18;;;;;;;7.70;3.83;;;19.60;1.00;;;;;;4989034;28;20917;-80
2022/10/05 10:28:09;;;;;;;9.87;4.33;;;19.60;1.00;;;;;;5021701;28;20464;-79
2022/10/05 10:30:55;;;;;;;8.60;4.30;;;19.60;1.00;;;;;;5028055;28;20961;-79
2022/10/05 10:33:48;;;;;;;10.03;4.50;;;19.80;1.00;;;;;;5010107;28;20449;-77
2022/10/05 10:36:21;;;;;;;8.03;3.70;;;20.20;1.00;;;;;;5023278;28;20469;-78
2022/10/05 10:39:00;;;;;;;10.63;4.40;;;20.40;1.00;;;;;;5020343;28;20556;-78
2022/10/05 10:41:55;;;;;;;9.30;4.03;;;20.50;1.00;;;;;;5019003;28;20946;-79
2022/10/05 10:45:00;;;;;;;10.90;5.17;;;20.60;1.00;;;;;;5018317;28;20465;-79
2022/10/05 10:47:59;;;;;;;12.23;4.10;;;20.80;1.00;;;;;;5016605;28;20472;-79
2022/10/05 10:50:57;;;;;;;11.10;4.93;;;21.00;1.00;;;;;;5020384;28;20480;-78
2022/10/05 10:54:11;;;;;;;7.53;3.87;;;20.90;1.00;;;;;;5018877;28;21006;-78
2022/10/05 10:57:05;;;;;;;10.60;4.50;;;21.10;1.00;;;;;;4959986;28;20493;-78
2022/10/05 11:00:14;;;;;;;9.80;5.00;;;21.40;1.00;;;;;;4956319;28;20470;-77
2022/10/05 11:03:17;;;;;;;6.93;3.70;;;21.60;1.00;;;;;;5001922;28;20957;-79
2022/10/05 11:06:23;;;;;;;7.80;4.30;;;22.40;1.00;;;;;;5006903;28;20449;-83
2022/10/05 11:09:22;;;;;;;7.40;3.80;;;23.70;1.00;;;;;;5010199;28;20468;-80
2022/10/05 11:12:35;;;;;;;6.30;4.00;;;24.00;1.00;;;;;;5026596;28;20445;-78
2022/10/05 11:15:24;;;;;;;10.23;4.90;;;24.00;1.00;;;;;;5027403;28;20426;-79
2022/10/05 11:18:14;;;;;;;9.17;4.93;;;23.90;1.00;;;;;;5027110;28;20504;-78
2022/10/05 11:21:13;;;;;;;8.73;4.70;;;24.40;1.00;;;;;;5026673;28;20535;-80
2022/10/05 11:24:10;;;;;;;7.40;4.70;;;26.90;1.00;;;;;;5028435;28;20977;-80
2022/10/05 11:27:05;;;;;;;11.00;4.57;;;29.20;1.00;;;;;;5024439;28;20477;-80
2022/10/05 11:30:12;;;;;;;6.03;4.07;;;31.30;1.00;;;;;;5025748;28;20622;-80
2022/10/05 11:33:18;;;;;;;7.30;4.30;;;32.20;1.00;;;;;;5023890;28;20469;-78
2022/10/05 11:36:14;;;;;;;5.77;4.60;;;31.00;1.00;;;;;;5023843;28;20456;-79
2022/10/05 11:39:16;;;;;;;6.93;4.30;;;30.10;1.00;;;;;;5025079;28;20512;-78
2022/10/05 11:42:06;;;;;;;5.40;3.93;;;30.00;1.00;;;;;;5028392;28;20434;-80
2022/10/05 11:45:01;;;;;;;5.60;3.90;;;31.50;1.00;;;;;;5025267;28;20454;-80
2022/10/05 11:47:35;;;;;;;5.23;3.70;;;32.40;1.00;;;;;;5027918;28;20499;-79
2022/10/05 11:50:11;;;;;;;6.47;3.80;;;32.60;1.00;;;;;;5029237;28;20449;-81
2022/10/05 11:52:49;;;;;;;5.63;4.10;;;31.70;1.00;;;;;;5025503;28;20456;-80
2022/10/05 11:55:24;;;;;;;6.47;4.23;;;30.00;1.00;;;;;;5030941;28;20539;-81
2022/10/05 11:57:55;;;;;;;6.70;4.00;;;28.60;1.00;;;;;;5026960;28;20425;-79
2022/10/05 12:00:24;;;;;;;5.90;4.00;;;28.90;1.00;;;;;;5031624;28;20496;-81
2022/10/05 12:03:05;;;;;;;5.63;3.53;;;28.10;1.00;;;;;;5025113;28;20453;-80
2022/10/05 12:05:43;;;;;;;6.50;4.20;;;26.70;1.00;;;;;;5018328;28;20596;-87
2022/10/05 12:08:23;;;;;;;7.00;4.10;;;25.30;1.00;;;;;;5010864;28;20559;-81
2022/10/05 12:11:05;;;;;;;7.00;4.20;;;24.50;1.00;;;;;;4975735;28;20470;-82
2022/10/05 12:13:40;;;;;;;6.40;3.83;;;23.70;1.00;;;;;;4994904;28;20476;-82
2022/10/05 12:16:51;;;;;;;7.23;3.87;;;23.20;1.00;;;;;;4990693;28;20423;-86
2022/10/05 12:25:01;;;;;;;8.70;4.57;;;25.20;1.00;;;;;;4619995;23;20505;-82
2022/10/05 12:30:50;;;;;;;6.60;3.93;;;26.20;1.00;;;;;;5007058;28;20476;-85
2022/10/05 12:36:15;;;;;;;7.20;3.90;;;25.70;1.00;;;;;;4987762;28;20433;-84
2022/10/05 12:38:52;;;;;;;7.13;3.60;;;26.50;1.00;;;;;;4993626;28;20427;-84
2022/10/05 12:44:48;;;;;;;7.37;5.37;;;26.20;1.00;;;;;;4999449;28;20490;-82
2022/10/05 12:47:26;;;;;;;6.37;4.10;;;25.70;1.00;;;;;;4989492;28;20498;-82
2022/10/05 12:50:10;;;;;;;7.93;3.60;;;25.40;1.00;;;;;;5002538;28;20459;-84
2022/10/05 12:52:50;;;;;;;5.23;3.37;;;25.20;1.00;;;;;;4995197;28;21397;-83
2022/10/05 12:55:24;;;;;;;6.17;3.10;;;24.70;1.00;;;;;;4995280;28;20430;-85
2022/10/05 12:58:09;;;;;;;6.87;3.40;;;24.20;1.00;;;;;;4995779;28;20446;-82
2022/10/05 13:00:47;;;;;;;5.90;3.57;;;23.70;1.00;;;;;;4994243;28;20459;-83
2022/10/05 13:03:25;;;;;;;6.00;3.20;;;23.30;1.00;;;;;;4993527;28;21289;-84
2022/10/05 13:06:02;;;;;;;5.43;3.57;;;23.10;1.00;;;;;;4996081;28;20459;-84
2022/10/05 13:08:37;;;;;;;5.27;3.57;;;23.30;1.00;;;;;;4995665;28;20497;-85
2022/10/05 13:11:14;;;;;;;7.90;3.40;;;23.10;1.00;;;;;;4996009;28;20479;-87
2022/10/05 13:13:52;;;;;;;4.53;2.87;;;23.00;1.00;;;;;;4998370;28;20447;-85
2022/10/05 13:16:29;;;;;;;6.43;3.50;;;22.80;1.00;;;;;;4996798;28;20517;-85
2022/10/05 13:19:28;;;;;;;7.83;4.13;;;22.60;1.00;;;;;;5001050;28;20454;-86
2022/10/05 13:22:16;;;;;;;5.70;3.33;;;22.50;1.00;;;;;;5000524;28;20446;-87
2022/10/05 13:24:54;;;;;;;6.27;3.30;;;22.60;1.00;;;;;;5000559;28;20465;-86
2022/10/05 13:27:27;;;;;;;6.50;3.60;;;22.60;1.00;;;;;;5003476;28;20443;-86
2022/10/05 13:30:02;;;;;;;7.87;4.27;;;22.60;1.00;;;;;;5001172;28;20415;-88
2022/10/05 13:32:34;;;;;;;5.30;3.33;;;22.60;1.00;;;;;;4999116;28;20585;-88
2022/10/05 13:35:22;;;;;;;6.77;3.50;;;22.50;1.00;;;;;;4995548;28;20554;-87
2022/10/05 13:38:00;;;;;;;6.13;3.00;;;22.50;1.00;;;;;;5000346;28;20497;-88
2022/10/05 13:40:35;;;;;;;6.13;3.80;;;22.40;1.00;;;;;;4994991;28;21064;-83
2022/10/05 13:43:13;;;;;;;7.20;3.00;;;22.40;1.00;;;;;;4988869;28;20460;-81
2022/10/05 13:45:46;;;;;;;5.60;3.30;;;22.20;1.00;;;;;;5002375;28;20533;-81
2022/10/05 13:48:23;;;;;;;6.00;3.40;;;22.10;1.00;;;;;;4995031;28;20527;-81
2022/10/05 13:51:00;;;;;;;6.07;3.30;;;22.10;1.00;;;;;;4988436;28;20525;-81
2022/10/05 13:53:34;;;;;;;7.10;3.60;;;21.80;1.00;;;;;;5003605;28;20483;-82
2022/10/05 13:56:12;;;;;;;7.00;3.57;;;21.60;1.00;;;;;;4993949;28;20566;-81
2022/10/05 13:58:46;;;;;;;7.03;3.10;;;21.50;1.00;;;;;;4997058;28;20588;-80
2022/10/05 14:01:24;;;;;;;5.73;3.20;;;21.30;1.00;;;;;;4991513;28;20481;-80
2022/10/05 14:04:14;;;;;;;7.37;3.07;;;21.20;1.00;;;;;;4990427;28;21064;-80
2022/10/05 14:06:45;;;;;;;5.80;3.17;;;21.00;1.00;;;;;;4991256;28;20435;-82
2022/10/05 14:09:26;;;;;;;5.20;2.90;;;20.90;1.00;;;;;;4989640;28;20485;-83
2022/10/05 14:12:10;;;;;;;4.93;2.53;;;20.90;1.00;;;;;;4992065;28;21936;-82
2022/10/05 14:14:47;;;;;;;5.40;2.70;;;20.80;1.00;;;;;;4985774;28;20443;-80
2022/10/05 14:17:16;;;;;;;5.73;3.10;;;20.70;1.00;;;;;;5003712;28;20442;-84
2022/10/05 14:19:46;;;;;;;10.10;3.43;;;20.60;1.00;;;;;;4996942;28;20431;-89
2022/10/05 14:22:22;;;;;;;6.10;3.33;;;20.50;1.00;;;;;;5003847;28;20468;-84
2022/10/05 14:24:54;;;;;;;5.40;3.13;;;20.40;1.00;;;;;;4997557;28;20425;-84